Hlavní strana
METAR-TAF:

METAR-TAF

Letiště :

Vadsø, Norsko

zeměpisná šířka: 70-04N, zeměpisná délka: 029-51E, výška: 3 m

Aktuální stav počasí

Zpráva byla vytvořena před 15 hodinami a 30 minutami, v 13:50 UTC
Západní vítr 19 kt
Teplota -3°C
Vlhkost vzduchu 68%
Tlak 998 hPa
Viditelnost 10 km a více
Skoro jasno ve výšce 2500 ft
Polojasno ve výšce 7200 ft
nízko zvířený sníh

METAR: ENVD 041350Z 27019KT 9999 DRSN FEW025 SCT072 M03/M08 Q0998

Čas: 07:20 (05:20 UTC)

Předpověď počasí

Zpráva byla vytvořena před 15 hodinami a 20 minutami, v 14:00 UTC
Předpověď platná od 04 v 15 UTC do 04 v 21 UTC
Západní vítr 20 kt
Viditelnost 10 km a více
Skoro jasno ve výšce 1500 ft
Polojasno ve výšce 2500 ft
nízko zvířený sníh
Dočasný
od 04 v 15 UTC do 04 v 21 UTC
Viditelnost: 4000 m
ve výšce 900 ft
sněhové přeháňky

TAF: ENVD 041400Z 0415/0421 27020KT 9999 DRSN FEW015 SCT025 TEMPO 0415/0421 4000 SHSN VV009

Stav a předpovědi počasí z více než 4 000 letišť (zprávy METAR a TAF).

Červené a žluté tečky na mapě představují dostupné meteorologické stanice.

Když kurzor umístíte na tečku, zobrazí se název stanice.

Pak kliknutím zobrazíte stav a předpověď počasí.

Chcete-li změnit mapu, kliknutím na zelené tlačítko se znaménkem +mapu přiblížíte, kliknutím na zelené tlačítko se znaménkem – mapu oddálíte a kliknutím na zelené šipky přejdete na sousední mapy.


METAR-TAF: